Time;durP1;ratioP1;P1;durP2;ratioP2;P2;SDS_P1;SDS_P2;PMS_P1;PMS_P2;Temp;Humidity;BMP_temperature;BMP_pressure;BME280_temperature;BME280_humidity;BME280_pressure;Samples;Min_cycle;Max_cycle;Signal;HPM_P1;HPM_P2
2023/07/26 00:00:31;;;;;;;9.23;7.87;;;;;;;18.80;60.35;97043.28;5010488;28;20204;-71
2023/07/26 00:02:56;;;;;;;11.30;7.83;;;;;;;18.79;60.63;97044.31;5008031;28;20660;-69
2023/07/26 00:05:22;;;;;;;10.73;9.13;;;;;;;18.76;60.77;97049.22;5009678;28;20185;-69
2023/07/26 00:07:47;;;;;;;10.70;9.50;;;;;;;18.79;61.00;97052.28;5008514;28;20287;-72
2023/07/26 00:10:13;;;;;;;9.77;8.07;;;;;;;18.80;61.03;97053.91;5008701;28;20294;-70
2023/07/26 00:12:38;;;;;;;10.30;9.27;;;;;;;18.80;60.88;97048.59;5009551;28;20236;-70
2023/07/26 00:15:04;;;;;;;14.33;9.57;;;;;;;18.76;61.18;97050.06;5012541;28;20184;-71
2023/07/26 00:17:29;;;;;;;11.50;9.90;;;;;;;18.77;61.09;97057.00;5009290;28;20267;-72
2023/07/26 00:19:55;;;;;;;11.10;9.87;;;;;;;18.75;61.27;97051.06;5008538;28;20223;-70
2023/07/26 00:22:20;;;;;;;10.93;9.60;;;;;;;18.74;61.29;97054.75;5009027;28;20234;-69
2023/07/26 00:24:46;;;;;;;11.67;9.70;;;;;;;18.76;61.26;97051.88;5007852;28;20242;-71
2023/07/26 00:27:14;;;;;;;14.87;9.37;;;;;;;18.74;61.16;97057.41;5008355;28;20732;-69
2023/07/26 00:29:39;;;;;;;17.47;9.40;;;;;;;18.75;61.66;97060.84;5009103;28;20283;-70
2023/07/26 00:32:05;;;;;;;10.60;9.30;;;;;;;18.76;61.56;97058.00;5011132;28;20558;-69
2023/07/26 00:34:30;;;;;;;9.60;8.67;;;;;;;18.75;61.46;97059.03;5008168;28;20239;-71
2023/07/26 00:36:56;;;;;;;12.03;10.23;;;;;;;18.72;61.66;97062.09;5007980;28;20752;-69
2023/07/26 00:39:21;;;;;;;9.13;8.23;;;;;;;18.73;61.78;97059.22;5008256;28;20542;-71
2023/07/26 00:41:46;;;;;;;10.70;9.20;;;;;;;18.72;61.43;97059.44;5010717;28;20183;-74
2023/07/26 00:44:12;;;;;;;9.23;8.40;;;;;;;18.61;61.88;97057.44;5014964;28;20189;-68
2023/07/26 00:46:37;;;;;;;10.77;9.20;;;;;;;18.52;62.50;97062.97;5008031;28;20184;-70
2023/07/26 00:49:03;;;;;;;12.70;8.97;;;;;;;18.59;62.26;97073.53;5009466;28;20272;-71
2023/07/26 00:51:28;;;;;;;10.87;9.73;;;;;;;18.63;62.20;97061.50;5006802;28;20681;-71
2023/07/26 00:53:54;;;;;;;17.90;10.90;;;;;;;18.60;62.24;97066.41;5005598;28;20193;-70
2023/07/26 00:56:20;;;;;;;11.93;9.07;;;;;;;18.61;62.17;97068.84;5006851;28;20189;-71
2023/07/26 00:58:47;;;;;;;13.63;9.53;;;;;;;18.62;62.21;97065.16;4989469;28;20197;-71
2023/07/26 01:01:12;;;;;;;11.60;10.40;;;;;;;18.66;62.23;97077.03;5008780;28;20205;-70
2023/07/26 01:03:38;;;;;;;10.67;9.57;;;;;;;18.67;61.97;97080.47;5008073;28;20470;-71
2023/07/26 01:06:40;;;;;;;8.97;8.17;;;;;;;18.69;62.18;97087.22;5008842;28;20267;-70
2023/07/26 01:09:14;;;;;;;10.10;9.10;;;;;;;18.68;61.90;97085.59;5007459;28;20196;-69
2023/07/26 01:11:48;;;;;;;9.67;8.73;;;;;;;18.65;61.85;97093.16;5006479;28;20463;-69
2023/07/26 01:14:23;;;;;;;11.40;8.87;;;;;;;18.66;61.92;97095.59;5006769;28;21074;-70
2023/07/26 01:16:48;;;;;;;10.53;8.40;;;;;;;18.65;61.61;97098.47;5006518;28;20426;-70
2023/07/26 01:19:14;;;;;;;8.97;8.07;;;;;;;18.64;61.98;97099.47;5008195;28;20906;-70
2023/07/26 01:21:39;;;;;;;11.40;7.93;;;;;;;18.61;61.59;97105.19;5007845;28;20267;-70
2023/07/26 01:24:05;;;;;;;18.23;7.40;;;;;;;18.59;61.61;97102.72;5011446;28;20219;-69
2023/07/26 01:26:30;;;;;;;8.30;7.20;;;;;;;18.59;61.42;97100.06;5007819;28;20246;-69
2023/07/26 01:28:56;;;;;;;10.63;7.40;;;;;;;18.55;61.41;97094.38;5007878;28;20188;-69
2023/07/26 01:31:23;;;;;;;12.30;7.80;;;;;;;18.50;60.94;97096.84;5007298;28;20227;-70
2023/07/26 01:33:51;;;;;;;6.97;6.10;;;;;;;18.45;60.56;97093.19;5005723;28;20731;-69
2023/07/26 01:36:19;;;;;;;7.83;6.13;;;;;;;18.42;60.58;97089.06;5008818;28;20431;-70
2023/07/26 01:38:45;;;;;;;6.40;5.80;;;;;;;18.39;60.47;97095.63;5006944;28;20450;-70
2023/07/26 01:41:12;;;;;;;6.17;5.47;;;;;;;18.38;60.79;97095.84;5008951;28;20538;-69
2023/07/26 01:43:37;;;;;;;4.83;4.47;;;;;;;18.40;60.30;97102.56;5005816;28;20434;-70
2023/07/26 01:46:02;;;;;;;6.13;5.50;;;;;;;18.40;60.14;97099.91;5012525;28;20427;-69
2023/07/26 01:48:28;;;;;;;7.60;4.97;;;;;;;18.29;59.41;97103.19;5008229;28;20226;-70
2023/07/26 01:50:53;;;;;;;6.10;4.30;;;;;;;18.27;58.86;97095.41;5008701;28;20759;-70
2023/07/26 01:53:19;;;;;;;7.40;4.40;;;;;;;18.32;59.54;97104.59;5015769;28;20180;-68
2023/07/26 01:55:44;;;;;;;5.30;4.40;;;;;;;18.34;59.85;97105.22;5009044;28;20200;-72
2023/07/26 01:58:10;;;;;;;6.53;4.50;;;;;;;18.34;59.80;97105.22;5008325;28;20271;-70
2023/07/26 02:00:35;;;;;;;6.23;4.70;;;;;;;18.30;60.07;97106.63;5007837;28;20236;-69
2023/07/26 02:03:01;;;;;;;8.73;4.80;;;;;;;18.33;60.30;97111.53;5010441;28;20183;-71
2023/07/26 02:05:26;;;;;;;6.10;4.03;;;;;;;18.32;60.12;97107.25;5006724;28;20608;-70
2023/07/26 02:07:52;;;;;;;6.70;4.57;;;;;;;18.25;59.95;97108.09;5012300;28;20181;-71
2023/07/26 02:10:17;;;;;;;6.47;5.00;;;;;;;18.24;60.58;97109.09;5007659;28;20287;-70
2023/07/26 02:12:43;;;;;;;5.17;4.67;;;;;;;18.28;60.66;97114.81;5007410;28;20291;-74
2023/07/26 02:15:08;;;;;;;5.87;4.47;;;;;;;18.26;60.94;97111.53;5006711;28;20172;-73
2023/07/26 02:17:34;;;;;;;7.20;4.67;;;;;;;18.27;60.80;97121.94;5012764;28;20185;-71
2023/07/26 02:20:00;;;;;;;6.03;4.73;;;;;;;18.27;60.24;97116.63;5007462;28;20669;-70
2023/07/26 02:22:25;;;;;;;9.10;4.53;;;;;;;18.23;59.89;97120.72;5013130;28;20184;-72
2023/07/26 02:24:50;;;;;;;4.70;4.10;;;;;;;18.25;60.17;97116.03;5009897;28;20195;-71
2023/07/26 02:27:16;;;;;;;7.97;5.07;;;;;;;18.28;60.27;97112.16;5012287;28;20737;-70
2023/07/26 02:29:42;;;;;;;6.50;4.93;;;;;;;18.31;60.21;97116.22;5010891;28;20605;-71
2023/07/26 02:32:07;;;;;;;5.63;3.80;;;;;;;18.32;60.41;97121.34;5017060;28;20668;-70
2023/07/26 02:34:33;;;;;;;6.20;4.20;;;;;;;18.30;60.32;97126.03;5012652;28;20254;-71
2023/07/26 02:36:59;;;;;;;4.77;4.17;;;;;;;18.30;60.27;97125.19;5011804;28;20699;-71
2023/07/26 02:39:24;;;;;;;6.67;4.90;;;;;;;18.26;60.13;97125.63;5011925;28;20423;-71
2023/07/26 02:41:49;;;;;;;7.50;4.77;;;;;;;18.25;60.31;97124.00;5010311;28;20207;-71
2023/07/26 02:44:15;;;;;;;7.50;4.97;;;;;;;18.24;60.56;97130.31;5012138;28;20231;-71
2023/07/26 02:46:40;;;;;;;5.90;5.30;;;;;;;18.19;60.37;97130.09;5009995;28;20176;-69
2023/07/26 02:49:06;;;;;;;5.03;4.63;;;;;;;18.18;60.11;97135.63;5010815;28;20613;-70
2023/07/26 02:51:31;;;;;;;5.53;5.03;;;;;;;18.15;60.20;97136.81;5010468;28;20212;-71
2023/07/26 02:53:57;;;;;;;5.40;4.90;;;;;;;18.18;59.94;97141.72;5013135;28;20271;-71
2023/07/26 02:56:22;;;;;;;7.97;4.47;;;;;;;18.20;59.99;97133.59;5010664;28;20311;-71
2023/07/26 02:58:48;;;;;;;6.63;5.50;;;;;;;18.17;59.62;97140.09;5013170;28;20212;-70
2023/07/26 03:01:13;;;;;;;5.20;4.70;;;;;;;18.12;59.83;97131.94;5011309;28;20216;-72
2023/07/26 03:03:38;;;;;;;5.00;4.60;;;;;;;18.11;59.55;97135.59;5010220;28;20208;-70
2023/07/26 03:06:04;;;;;;;6.40;4.60;;;;;;;18.05;59.81;97142.53;5011872;28;20196;-70
2023/07/26 03:08:29;;;;;;;5.90;4.63;;;;;;;18.09;59.55;97137.63;5010551;28;20707;-72
2023/07/26 03:10:55;;;;;;;5.97;4.13;;;;;;;18.08;59.90;97143.97;5011217;28;20363;-71
2023/07/26 03:13:20;;;;;;;6.40;4.40;;;;;;;18.07;59.69;97145.81;5016114;28;20235;-71
2023/07/26 03:15:46;;;;;;;9.57;5.00;;;;;;;18.07;59.71;97144.97;5013853;28;20302;-72
2023/07/26 03:18:11;;;;;;;4.90;4.50;;;;;;;18.04;59.57;97155.97;5010287;28;20194;-70
2023/07/26 03:20:36;;;;;;;5.03;4.53;;;;;;;18.00;59.71;97158.22;5010385;28;20200;-70
2023/07/26 03:23:02;;;;;;;5.67;4.50;;;;;;;17.94;59.81;97151.06;5009578;28;20712;-70
2023/07/26 03:25:27;;;;;;;5.13;4.30;;;;;;;17.97;59.83;97155.97;5009311;28;20608;-70
2023/07/26 03:27:53;;;;;;;10.13;4.70;;;;;;;17.92;60.00;97150.44;5009642;28;20211;-70
2023/07/26 03:30:18;;;;;;;5.20;4.70;;;;;;;17.85;59.80;97165.47;5013125;28;20632;-71
2023/07/26 03:32:44;;;;;;;6.70;4.50;;;;;;;17.79;59.81;97162.63;5010255;28;20626;-69
2023/07/26 03:35:09;;;;;;;8.83;4.47;;;;;;;17.79;60.12;97164.44;5010225;28;20185;-70
2023/07/26 03:37:35;;;;;;;5.23;4.60;;;;;;;17.77;60.24;97166.47;5010524;28;20188;-70
2023/07/26 03:40:00;;;;;;;4.80;3.83;;;;;;;17.80;60.05;97176.69;5007682;28;20250;-70
2023/07/26 03:42:26;;;;;;;4.93;3.90;;;;;;;17.77;60.18;97171.78;5012873;28;20625;-70
2023/07/26 03:44:51;;;;;;;5.10;4.53;;;;;;;17.77;60.15;97177.06;5009621;28;20291;-70
2023/07/26 03:47:16;;;;;;;7.03;4.87;;;;;;;17.77;60.06;97175.25;5012165;28;20263;-70
2023/07/26 03:49:42;;;;;;;5.50;4.47;;;;;;;17.78;60.06;97168.13;5009393;28;20212;-71
2023/07/26 03:52:07;;;;;;;7.07;4.53;;;;;;;17.75;60.02;97177.28;5011711;28;20740;-71
2023/07/26 03:54:33;;;;;;;7.10;4.77;;;;;;;17.74;60.29;97172.19;5001853;28;20222;-71
2023/07/26 03:56:58;;;;;;;4.27;3.87;;;;;;;17.70;60.12;97173.59;5008855;28;20274;-71
2023/07/26 03:59:24;;;;;;;5.43;4.23;;;;;;;17.76;60.24;97180.78;4995388;28;20889;-71
2023/07/26 04:01:49;;;;;;;4.73;4.10;;;;;;;17.77;60.10;97177.91;5008315;28;20210;-71
2023/07/26 04:04:15;;;;;;;5.33;3.80;;;;;;;17.80;60.42;97182.00;5008203;28;20197;-70
2023/07/26 04:06:40;;;;;;;8.33;4.30;;;;;;;17.83;60.28;97192.19;5010117;28;20188;-70
2023/07/26 04:09:05;;;;;;;4.30;3.90;;;;;;;17.80;59.90;97193.44;5004680;28;20232;-70
2023/07/26 04:11:31;;;;;;;4.33;3.80;;;;;;;17.82;59.91;97193.22;5008153;28;20727;-72
2023/07/26 04:13:56;;;;;;;4.43;3.90;;;;;;;17.80;59.73;97200.53;5002091;28;21479;-70
2023/07/26 04:16:22;;;;;;;7.20;3.83;;;;;;;17.81;59.76;97192.41;5001390;28;20180;-70
2023/07/26 04:18:48;;;;;;;5.60;4.10;;;;;;;17.81;60.03;97189.75;5000191;28;20268;-72
2023/07/26 04:21:15;;;;;;;4.33;3.90;;;;;;;17.80;59.95;97196.06;4995821;28;20983;-71
2023/07/26 04:23:41;;;;;;;6.63;4.10;;;;;;;17.81;60.03;97199.53;4999443;28;20227;-73
2023/07/26 04:26:07;;;;;;;5.90;4.20;;;;;;;17.78;59.71;97191.97;4998809;28;20443;-72
2023/07/26 04:28:32;;;;;;;4.87;4.47;;;;;;;17.74;59.48;97193.41;4998316;28;20425;-69
2023/07/26 04:30:58;;;;;;;6.20;4.20;;;;;;;17.75;59.67;97195.03;5003852;28;20215;-74
2023/07/26 04:33:23;;;;;;;4.80;4.30;;;;;;;17.78;59.84;97191.97;4997716;28;20223;-72
2023/07/26 04:35:51;;;;;;;4.53;4.13;;;;;;;17.74;59.79;97196.06;4995925;28;20276;-69
2023/07/26 04:38:20;;;;;;;5.73;4.50;;;;;;;17.81;59.97;97194.22;4999690;28;20552;-71
2023/07/26 04:40:48;;;;;;;7.13;4.57;;;;;;;17.90;59.83;97208.13;5007863;28;20450;-71
2023/07/26 04:43:19;;;;;;;5.80;4.50;;;;;;;17.90;59.92;97198.31;5011885;28;20438;-71
2023/07/26 04:45:46;;;;;;;5.33;4.00;;;;;;;17.80;59.78;97196.06;5004203;28;20435;-70
2023/07/26 04:48:12;;;;;;;4.30;3.90;;;;;;;17.77;59.51;97200.94;5006065;28;20794;-72
2023/07/26 04:50:37;;;;;;;5.90;4.30;;;;;;;17.76;59.91;97207.28;5009149;28;20450;-70
2023/07/26 04:53:03;;;;;;;8.13;4.40;;;;;;;17.77;59.76;97204.41;5007829;28;20676;-70
2023/07/26 04:55:28;;;;;;;5.60;5.00;;;;;;;17.74;59.75;97210.09;5004157;28;20215;-71
2023/07/26 04:57:53;;;;;;;4.40;4.00;;;;;;;17.74;59.93;97214.59;5010930;28;20273;-71
2023/07/26 05:00:19;;;;;;;4.70;4.40;;;;;;;17.73;59.79;97219.06;5006666;28;20707;-69
2023/07/26 05:02:44;;;;;;;7.37;4.63;;;;;;;17.75;59.99;97218.91;5003423;28;20196;-70
2023/07/26 05:05:10;;;;;;;4.23;3.90;;;;;;;17.82;59.83;97219.72;5007480;28;20212;-70
2023/07/26 05:07:35;;;;;;;4.50;4.00;;;;;;;17.88;59.98;97221.59;5008523;28;20173;-69
2023/07/26 05:10:01;;;;;;;4.93;4.40;;;;;;;17.89;59.99;97219.75;5009711;28;20847;-69
2023/07/26 05:12:26;;;;;;;7.40;4.50;;;;;;;17.88;59.61;97226.06;5006886;28;20215;-71
2023/07/26 05:14:52;;;;;;;4.20;3.83;;;;;;;17.90;59.74;97230.13;5011360;28;20272;-70
2023/07/26 05:17:17;;;;;;;7.60;4.60;;;;;;;17.90;59.53;97232.78;5011643;28;20336;-70
2023/07/26 05:19:43;;;;;;;4.80;4.30;;;;;;;17.91;59.57;97228.31;5007173;28;20283;-71
2023/07/26 05:22:08;;;;;;;5.17;3.97;;;;;;;17.94;59.79;97231.38;5010033;28;20184;-71
2023/07/26 05:24:34;;;;;;;8.27;4.60;;;;;;;17.89;59.40;97236.50;5009852;28;20180;-70
2023/07/26 05:26:59;;;;;;;5.17;4.30;;;;;;;17.88;59.34;97234.00;5007949;28;20196;-70
2023/07/26 05:29:25;;;;;;;6.87;4.60;;;;;;;17.85;59.30;97237.06;5013508;28;20191;-70
2023/07/26 05:31:50;;;;;;;5.90;4.27;;;;;;;17.78;59.28;97244.97;5015310;28;20228;-69
2023/07/26 05:34:16;;;;;;;8.17;4.83;;;;;;;17.77;59.49;97241.53;5010528;28;20172;-72
2023/07/26 05:36:41;;;;;;;6.40;4.37;;;;;;;17.76;59.35;97239.09;5013318;28;20244;-70
2023/07/26 05:39:07;;;;;;;6.27;4.30;;;;;;;17.74;58.98;97247.22;5013651;28;20192;-70
2023/07/26 05:41:32;;;;;;;11.50;4.80;;;;;;;17.76;59.21;97249.69;5017655;28;20227;-72
2023/07/26 05:44:00;;;;;;;6.33;4.73;;;;;;;17.76;59.27;97239.09;5015100;28;20242;-70
2023/07/26 05:46:26;;;;;;;7.90;4.10;;;;;;;17.85;59.71;97245.84;5012704;28;20200;-69
2023/07/26 05:48:51;;;;;;;11.23;4.50;;;;;;;17.86;59.54;97249.28;5007440;28;20427;-70
2023/07/26 05:51:17;;;;;;;6.60;4.90;;;;;;;17.92;59.28;97244.03;5009814;28;20207;-72
2023/07/26 05:53:42;;;;;;;4.10;3.70;;;;;;;18.03;59.49;97250.63;5010730;28;20282;-68
2023/07/26 05:56:08;;;;;;;4.87;4.20;;;;;;;18.11;59.27;97254.94;5006240;28;20191;-69
2023/07/26 05:58:33;;;;;;;6.87;3.93;;;;;;;18.15;59.19;97256.16;5013578;28;20274;-72
2023/07/26 06:00:58;;;;;;;6.20;3.87;;;;;;;18.26;59.03;97260.06;5006018;28;20295;-69
2023/07/26 06:03:24;;;;;;;4.10;3.80;;;;;;;18.35;58.68;97263.38;5012005;28;20560;-70
2023/07/26 06:05:50;;;;;;;4.80;3.63;;;;;;;18.43;58.50;97255.22;5013049;28;20194;-71
2023/07/26 06:08:15;;;;;;;4.70;3.77;;;;;;;18.46;58.10;97260.13;5008964;28;20564;-72
2023/07/26 06:10:41;;;;;;;4.40;4.00;;;;;;;18.50;57.87;97261.34;5013195;28;20203;-69
2023/07/26 06:13:12;;;;;;;4.30;3.90;;;;;;;18.57;57.79;97266.69;5013233;28;20699;-69
2023/07/26 06:15:39;;;;;;;4.10;3.80;;;;;;;18.64;57.69;97261.38;5014185;28;20668;-69
2023/07/26 06:18:04;;;;;;;8.30;4.00;;;;;;;18.72;57.93;97269.13;5007530;28;20411;-70
2023/07/26 06:20:29;;;;;;;12.60;3.77;;;;;;;18.77;57.92;97266.69;5010487;28;20863;-69
2023/07/26 06:22:55;;;;;;;4.50;4.10;;;;;;;18.72;57.16;97266.47;5011899;28;20189;-70
2023/07/26 06:25:20;;;;;;;8.20;3.57;;;;;;;18.74;57.48;97267.09;5010722;28;20198;-70
2023/07/26 06:27:46;;;;;;;7.13;3.97;;;;;;;18.65;57.61;97276.28;5013181;28;20179;-69
2023/07/26 06:30:13;;;;;;;5.33;3.47;;;;;;;18.68;58.10;97281.16;5010481;28;20235;-68
2023/07/26 06:32:39;;;;;;;3.53;3.23;;;;;;;18.74;57.79;97277.72;5011039;28;20196;-71
2023/07/26 06:35:05;;;;;;;6.10;3.70;;;;;;;18.82;57.32;97284.69;5007608;28;20594;-69
2023/07/26 06:37:30;;;;;;;11.20;3.40;;;;;;;18.86;57.62;97273.44;5010102;28;20184;-70
2023/07/26 06:39:55;;;;;;;10.83;4.37;;;;;;;18.89;57.32;97274.88;5013328;28;20971;-70
2023/07/26 06:42:21;;;;;;;4.80;4.30;;;;;;;18.81;57.55;97278.53;5010380;28;20180;-72
2023/07/26 06:44:46;;;;;;;8.10;4.10;;;;;;;18.73;57.71;97276.09;5013633;28;20188;-69
2023/07/26 06:47:12;;;;;;;4.20;3.80;;;;;;;18.70;57.91;97284.44;5010144;28;20187;-71
2023/07/26 06:49:37;;;;;;;4.10;3.70;;;;;;;18.66;58.14;97288.50;5013298;28;20184;-72
2023/07/26 06:52:03;;;;;;;7.30;4.70;;;;;;;18.64;57.75;97290.56;5010262;28;20311;-70
2023/07/26 06:54:29;;;;;;;4.00;3.60;;;;;;;18.62;57.92;97293.41;5011903;28;20188;-68
2023/07/26 06:56:55;;;;;;;11.83;4.40;;;;;;;18.42;58.81;97290.72;5010637;28;20227;-70
2023/07/26 06:59:21;;;;;;;4.20;3.63;;;;;;;18.55;58.73;97303.22;5008675;28;20455;-71
2023/07/26 07:01:46;;;;;;;6.57;4.33;;;;;;;18.60;58.92;97303.41;5007589;28;20348;-71
2023/07/26 07:04:12;;;;;;;3.83;3.53;;;;;;;18.67;58.54;97298.94;5009410;28;20200;-70
2023/07/26 07:06:37;;;;;;;7.73;3.97;;;;;;;18.72;58.92;97308.94;5012859;28;20191;-69
2023/07/26 07:09:04;;;;;;;4.97;4.00;;;;;;;18.77;58.65;97303.88;5012458;28;20283;-70
2023/07/26 07:11:29;;;;;;;6.77;3.97;;;;;;;18.80;58.96;97300.78;5009191;28;20635;-70
2023/07/26 07:13:56;;;;;;;15.40;3.87;;;;;;;18.66;58.61;97307.09;5010415;28;20427;-69
2023/07/26 07:16:22;;;;;;;4.37;3.97;;;;;;;18.51;59.14;97299.31;5012630;28;20189;-70
2023/07/26 07:18:48;;;;;;;5.20;3.70;;;;;;;18.54;59.21;97307.69;5011090;28;20785;-70
2023/07/26 07:21:13;;;;;;;6.63;4.00;;;;;;;18.58;59.11;97314.22;5008985;28;20254;-72
2023/07/26 07:23:39;;;;;;;8.93;4.20;;;;;;;18.50;59.47;97302.97;5014372;28;20503;-72
2023/07/26 07:26:04;;;;;;;8.00;4.17;;;;;;;18.49;59.83;97302.19;5032974;28;20201;-70
2023/07/26 07:28:30;;;;;;;7.03;4.47;;;;;;;18.45;59.89;97300.94;5037639;28;20187;-72
2023/07/26 07:30:55;;;;;;;8.20;4.40;;;;;;;18.46;59.63;97304.41;5039556;28;20208;-74
2023/07/26 07:33:21;;;;;;;5.37;4.20;;;;;;;18.46;59.72;97297.25;5033465;28;20227;-71
2023/07/26 07:35:47;;;;;;;4.60;3.80;;;;;;;18.42;60.15;97304.81;5034735;28;20181;-72
2023/07/26 07:38:12;;;;;;;5.90;4.13;;;;;;;18.50;60.07;97305.63;5033828;28;20232;-71
2023/07/26 07:40:38;;;;;;;6.50;4.23;;;;;;;18.55;59.38;97311.97;5018340;28;20207;-71
2023/07/26 07:43:03;;;;;;;4.13;3.80;;;;;;;18.60;59.87;97314.03;4964159;28;20386;-70
2023/07/26 07:45:29;;;;;;;5.00;4.20;;;;;;;18.55;59.62;97311.97;5011721;28;20524;-71
2023/07/26 07:47:54;;;;;;;6.40;4.10;;;;;;;18.51;59.71;97310.75;5011699;28;20661;-72
2023/07/26 07:50:19;;;;;;;7.30;4.10;;;;;;;18.52;60.03;97323.00;5011225;28;20268;-71
2023/07/26 07:52:45;;;;;;;11.30;4.67;;;;;;;18.52;60.02;97316.88;5010931;28;20200;-70
2023/07/26 07:55:10;;;;;;;5.27;4.77;;;;;;;18.45;60.09;97322.16;5005895;28;20188;-72
2023/07/26 07:57:36;;;;;;;4.90;3.90;;;;;;;18.35;60.03;97313.78;5006959;28;20197;-69
2023/07/26 08:00:02;;;;;;;9.77;4.77;;;;;;;18.31;59.89;97318.66;5016026;28;20212;-70
2023/07/26 08:02:27;;;;;;;7.10;3.83;;;;;;;18.26;59.49;97321.91;4978041;28;20185;-71
2023/07/26 08:04:52;;;;;;;6.30;4.30;;;;;;;18.22;59.59;97323.31;5012616;28;20188;-68
2023/07/26 08:07:18;;;;;;;6.37;3.60;;;;;;;18.18;59.56;97321.25;5011090;28;20270;-69
2023/07/26 08:09:43;;;;;;;4.00;3.63;;;;;;;18.18;59.84;97327.38;5007930;28;20303;-69
2023/07/26 08:12:09;;;;;;;8.53;3.87;;;;;;;18.17;59.89;97317.78;5014081;28;20196;-69
2023/07/26 08:14:34;;;;;;;6.43;3.80;;;;;;;18.21;59.82;97326.19;4990277;28;20191;-70
2023/07/26 08:17:00;;;;;;;5.33;4.03;;;;;;;18.09;59.77;97321.41;5009354;28;20196;-71
2023/07/26 08:19:25;;;;;;;5.97;3.70;;;;;;;18.17;59.92;97324.94;5014064;28;20206;-72
2023/07/26 08:21:51;;;;;;;8.43;4.20;;;;;;;18.18;59.74;97324.72;5007945;28;20807;-70
2023/07/26 08:24:16;;;;;;;7.57;3.53;;;;;;;18.05;60.04;97322.00;5009879;28;20188;-72
2023/07/26 08:26:42;;;;;;;3.40;3.20;;;;;;;18.14;59.32;97326.16;5011684;28;20200;-71
2023/07/26 08:29:07;;;;;;;3.97;3.20;;;;;;;18.15;59.15;97317.16;5011867;28;20199;-69
2023/07/26 08:31:33;;;;;;;4.37;2.70;;;;;;;18.09;58.42;97315.31;5008456;28;20257;-69
2023/07/26 08:33:58;;;;;;;2.77;2.20;;;;;;;18.18;58.80;97313.31;5013085;28;20611;-72
2023/07/26 08:36:24;;;;;;;3.47;1.73;;;;;;;18.33;57.84;97318.44;5013151;28;20188;-71
2023/07/26 08:38:49;;;;;;;3.27;1.90;;;;;;;18.46;57.54;97320.34;5007595;28;20191;-71
2023/07/26 08:41:15;;;;;;;1.73;1.33;;;;;;;18.42;54.65;97314.59;5007531;28;20750;-72
2023/07/26 08:43:42;;;;;;;3.23;1.77;;;;;;;18.49;54.64;97318.09;5008887;28;20192;-72
2023/07/26 08:46:08;;;;;;;3.07;1.53;;;;;;;18.58;54.68;97310.78;5009395;28;20179;-71
2023/07/26 08:48:33;;;;;;;2.20;1.43;;;;;;;18.62;54.26;97317.31;5008957;28;20434;-72
2023/07/26 08:51:00;;;;;;;1.50;1.40;;;;;;;18.70;54.55;97318.94;5011358;28;20212;-73
2023/07/26 08:53:29;;;;;;;1.97;1.20;;;;;;;18.70;54.06;97326.91;5013571;28;20208;-71
2023/07/26 08:55:55;;;;;;;1.63;1.10;;;;;;;18.58;53.39;97324.03;5008887;28;20427;-72
2023/07/26 08:58:21;;;;;;;1.60;1.10;;;;;;;18.47;53.36;97322.78;5011571;28;20840;-71
2023/07/26 09:00:47;;;;;;;1.57;0.87;;;;;;;18.50;54.22;97325.03;5014738;28;20443;-72
2023/07/26 09:03:13;;;;;;;1.43;1.27;;;;;;;18.60;53.85;97326.50;5008028;28;20557;-72
2023/07/26 09:05:38;;;;;;;1.20;1.00;;;;;;;18.68;53.75;97326.28;5012688;28;20205;-73
2023/07/26 09:08:04;;;;;;;2.60;1.10;;;;;;;18.56;53.91;97329.53;5018207;28;20951;-74
2023/07/26 09:10:31;;;;;;;1.30;1.00;;;;;;;18.55;54.35;97325.25;5012117;28;20200;-72
2023/07/26 09:13:08;;;;;;;1.30;1.00;;;;;;;18.50;54.47;97319.75;5009420;28;20588;-72
2023/07/26 09:15:38;;;;;;;1.80;1.10;;;;;;;18.60;54.66;97329.16;5018192;28;20480;-71
2023/07/26 09:18:06;;;;;;;1.20;1.10;;;;;;;18.62;54.07;97330.56;5011962;28;20428;-71
2023/07/26 09:20:33;;;;;;;2.63;0.90;;;;;;;18.71;54.16;97325.91;5007550;28;20450;-70
2023/07/26 09:23:05;;;;;;;1.30;1.10;;;;;;;18.66;54.39;97331.81;5013888;28;20419;-72
2023/07/26 09:25:34;;;;;;;2.33;1.10;;;;;;;18.47;53.82;97330.75;5009950;28;20524;-71
2023/07/26 09:28:01;;;;;;;1.77;1.17;;;;;;;18.57;54.88;97336.47;5010508;28;21043;-71
2023/07/26 09:30:27;;;;;;;1.53;1.10;;;;;;;18.37;55.41;97330.31;5017689;28;20442;-71
2023/07/26 09:32:55;;;;;;;2.90;0.90;;;;;;;18.37;56.29;97340.94;5013160;28;20549;-74
2023/07/26 09:35:20;;;;;;;2.87;1.10;;;;;;;18.33;56.20;97337.84;5017002;28;20940;-71
2023/07/26 09:37:46;;;;;;;1.20;1.10;;;;;;;18.30;57.17;97329.44;5010294;28;20427;-71
2023/07/26 09:40:11;;;;;;;1.07;0.90;;;;;;;18.14;56.90;97320.84;5009695;28;20204;-72
2023/07/26 09:42:46;;;;;;;1.90;1.00;;;;;;;18.10;57.74;97319.59;5011488;28;20194;-72
2023/07/26 09:45:18;;;;;;;1.20;1.10;;;;;;;18.15;57.67;97324.31;5010985;28;20196;-73
2023/07/26 09:47:44;;;;;;;2.53;1.20;;;;;;;18.27;58.24;97335.97;5008705;28;20420;-76
2023/07/26 09:50:29;;;;;;;1.90;1.23;;;;;;;18.38;58.58;97337.25;5013759;28;20522;-72
2023/07/26 09:52:56;;;;;;;2.97;1.37;;;;;;;18.44;57.95;97325.81;5010729;28;20216;-74
2023/07/26 09:55:26;;;;;;;1.30;1.20;;;;;;;18.68;58.30;97331.59;5010198;28;20525;-71
2023/07/26 09:57:53;;;;;;;1.70;1.60;;;;;;;18.83;57.58;97329.59;5016647;28;21043;-71
2023/07/26 10:00:19;;;;;;;2.60;1.40;;;;;;;18.86;57.18;97326.53;5013255;28;20555;-72
2023/07/26 10:03:04;;;;;;;1.50;1.30;;;;;;;19.10;56.96;97321.69;5017554;28;20418;-71
2023/07/26 10:05:36;;;;;;;1.53;1.43;;;;;;;19.38;56.12;97325.97;5017364;28;20438;-73
2023/07/26 10:08:02;;;;;;;1.87;1.33;;;;;;;19.55;55.20;97334.31;5030374;28;20513;-74
2023/07/26 10:10:28;;;;;;;2.17;1.40;;;;;;;19.67;53.79;97329.19;5024850;28;20454;-74
2023/07/26 10:12:54;;;;;;;2.80;1.40;;;;;;;20.12;54.15;97319.69;5019993;28;20447;-74
2023/07/26 10:15:20;;;;;;;2.03;1.40;;;;;;;20.55;54.34;97319.06;5019384;28;20196;-73
2023/07/26 10:17:49;;;;;;;1.50;1.33;;;;;;;20.94;54.94;97311.88;5020899;28;20418;-77
2023/07/26 10:20:15;;;;;;;3.10;1.47;;;;;;;21.36;53.75;97313.97;5024581;28;20495;-74
2023/07/26 10:22:41;;;;;;;1.73;1.63;;;;;;;21.63;52.53;97319.94;5022904;28;20414;-74
2023/07/26 10:25:07;;;;;;;4.37;1.47;;;;;;;21.63;51.15;97319.94;5020938;28;20212;-73
2023/07/26 10:27:33;;;;;;;1.50;1.30;;;;;;;21.58;50.02;97319.72;5029140;28;20413;-73
2023/07/26 10:29:59;;;;;;;2.40;1.30;;;;;;;21.48;51.33;97327.41;5023912;28;20200;-73
2023/07/26 10:32:24;;;;;;;1.90;1.30;;;;;;;21.37;50.89;97325.47;5022200;28;20447;-72
2023/07/26 10:34:57;;;;;;;2.00;1.20;;;;;;;21.22;50.61;97328.50;5021199;28;20187;-73
2023/07/26 10:37:23;;;;;;;1.50;1.40;;;;;;;21.14;49.68;97334.91;5021838;28;20189;-72
2023/07/26 10:39:49;;;;;;;1.70;1.20;;;;;;;21.06;48.62;97338.63;5025096;28;20477;-74
2023/07/26 10:42:22;;;;;;;3.77;1.47;;;;;;;21.24;48.80;97337.06;5024875;28;20195;-73
2023/07/26 10:44:48;;;;;;;3.50;1.27;;;;;;;21.45;47.96;97330.53;5027019;28;20782;-73
2023/07/26 10:47:14;;;;;;;1.87;1.40;;;;;;;21.54;47.56;97331.91;5029488;28;20496;-73
2023/07/26 10:49:44;;;;;;;2.83;1.40;;;;;;;21.54;46.70;97321.22;5024467;28;20678;-71
2023/07/26 10:52:10;;;;;;;2.60;1.30;;;;;;;21.50;47.23;97336.03;5029257;28;20270;-72
2023/07/26 10:54:41;;;;;;;2.80;1.53;;;;;;;21.44;47.38;97336.88;5022383;28;20478;-71
2023/07/26 10:57:14;;;;;;;9.40;2.10;;;;;;;21.28;47.06;97335.59;5016613;28;20190;-72
2023/07/26 11:00:16;;;;;;;3.13;1.73;;;;;;;21.11;47.89;97328.13;5009665;28;20452;-71
2023/07/26 11:02:46;;;;;;;1.80;1.70;;;;;;;21.06;48.26;97327.16;5018387;28;20764;-71
2023/07/26 11:05:18;;;;;;;1.50;1.40;;;;;;;20.92;48.29;97319.25;4999106;28;20411;-73
2023/07/26 11:08:01;;;;;;;1.73;1.63;;;;;;;20.88;48.79;97323.41;5016357;28;20430;-72
2023/07/26 11:10:31;;;;;;;2.17;1.80;;;;;;;20.94;49.45;97317.19;5016130;28;20453;-72
2023/07/26 11:13:18;;;;;;;2.33;1.50;;;;;;;21.13;49.91;97317.28;5013618;28;20971;-73
2023/07/26 11:15:45;;;;;;;1.70;1.60;;;;;;;21.20;49.13;97315.34;5010855;28;20416;-71
2023/07/26 11:18:11;;;;;;;2.50;1.40;;;;;;;21.28;48.41;97323.09;5020914;28;20427;-71
2023/07/26 11:20:55;;;;;;;3.17;1.43;;;;;;;21.34;48.06;97321.41;5015590;28;21034;-72
2023/07/26 11:23:22;;;;;;;1.70;1.50;;;;;;;21.38;48.32;97317.25;5024325;28;20468;-71
2023/07/26 11:25:51;;;;;;;1.83;1.50;;;;;;;21.59;47.46;97313.41;5015062;28;20435;-71
2023/07/26 11:28:16;;;;;;;1.97;1.70;;;;;;;21.73;45.40;97327.44;5022210;28;20423;-73